sensor_id;sensor_type;location;lat;lon;timestamp;P1;P2;P0
47741;PMS5003;33504;52.066;6.096;2023-12-14T00:01:45;32;28;
47741;PMS5003;33504;52.066;6.096;2023-12-14T00:04:12;27;25;
47741;PMS5003;33504;52.066;6.096;2023-12-14T00:06:39;36;34;
47741;PMS5003;33504;52.066;6.096;2023-12-14T00:09:06;24;23;
47741;PMS5003;33504;52.066;6.096;2023-12-14T00:11:35;31;29;
47741;PMS5003;33504;52.066;6.096;2023-12-14T00:14:04;24;23;
47741;PMS5003;33504;52.066;6.096;2023-12-14T00:16:31;28;26;
47741;PMS5003;33504;52.066;6.096;2023-12-14T00:18:58;28;27;
47741;PMS5003;33504;52.066;6.096;2023-12-14T00:21:25;30;29;
47741;PMS5003;33504;52.066;6.096;2023-12-14T00:23:52;24;23;
47741;PMS5003;33504;52.066;6.096;2023-12-14T00:26:19;29;29;
47741;PMS5003;33504;52.066;6.096;2023-12-14T00:28:46;33;31;
47741;PMS5003;33504;52.066;6.096;2023-12-14T00:31:13;25;24;
47741;PMS5003;33504;52.066;6.096;2023-12-14T00:33:40;29;25;
47741;PMS5003;33504;52.066;6.096;2023-12-14T00:36:08;30;28;
47741;PMS5003;33504;52.066;6.096;2023-12-14T00:38:35;25;24;
47741;PMS5003;33504;52.066;6.096;2023-12-14T00:41:02;28;25;
47741;PMS5003;33504;52.066;6.096;2023-12-14T00:43:30;27;26;
47741;PMS5003;33504;52.066;6.096;2023-12-14T00:45:57;26;24;
47741;PMS5003;33504;52.066;6.096;2023-12-14T00:48:25;24;22;
47741;PMS5003;33504;52.066;6.096;2023-12-14T00:50:51;31;28;
47741;PMS5003;33504;52.066;6.096;2023-12-14T00:53:18;32;30;
47741;PMS5003;33504;52.066;6.096;2023-12-14T00:55:46;27;27;
47741;PMS5003;33504;52.066;6.096;2023-12-14T00:58:13;31;29;
47741;PMS5003;33504;52.066;6.096;2023-12-14T01:00:41;27;24;
47741;PMS5003;33504;52.066;6.096;2023-12-14T01:03:08;24;23;
47741;PMS5003;33504;52.066;6.096;2023-12-14T01:05:36;31;29;
47741;PMS5003;33504;52.066;6.096;2023-12-14T01:08:03;38;34;
47741;PMS5003;33504;52.066;6.096;2023-12-14T01:10:31;22;20;
47741;PMS5003;33504;52.066;6.096;2023-12-14T01:12:58;27;27;
47741;PMS5003;33504;52.066;6.096;2023-12-14T01:15:26;31;29;
47741;PMS5003;33504;52.066;6.096;2023-12-14T01:17:53;26;25;
47741;PMS5003;33504;52.066;6.096;2023-12-14T01:20:20;22;22;
47741;PMS5003;33504;52.066;6.096;2023-12-14T01:22:47;30;30;
47741;PMS5003;33504;52.066;6.096;2023-12-14T01:25:14;24;22;
47741;PMS5003;33504;52.066;6.096;2023-12-14T01:27:41;26;26;
47741;PMS5003;33504;52.066;6.096;2023-12-14T01:30:09;30;27;
47741;PMS5003;33504;52.066;6.096;2023-12-14T01:32:36;28;26;
47741;PMS5003;33504;52.066;6.096;2023-12-14T01:35:03;27;25;
47741;PMS5003;33504;52.066;6.096;2023-12-14T01:37:31;22;22;
47741;PMS5003;33504;52.066;6.096;2023-12-14T01:39:58;21;21;
47741;PMS5003;33504;52.066;6.096;2023-12-14T01:42:25;30;29;
47741;PMS5003;33504;52.066;6.096;2023-12-14T01:44:53;24;23;
47741;PMS5003;33504;52.066;6.096;2023-12-14T01:47:20;24;23;
47741;PMS5003;33504;52.066;6.096;2023-12-14T01:49:47;27;26;
47741;PMS5003;33504;52.066;6.096;2023-12-14T01:52:15;26;26;
47741;PMS5003;33504;52.066;6.096;2023-12-14T01:54:42;22;20;
47741;PMS5003;33504;52.066;6.096;2023-12-14T01:57:10;23;22;
47741;PMS5003;33504;52.066;6.096;2023-12-14T01:59:36;24;23;
47741;PMS5003;33504;52.066;6.096;2023-12-14T02:02:04;27;26;
47741;PMS5003;33504;52.066;6.096;2023-12-14T02:04:31;28;26;
47741;PMS5003;33504;52.066;6.096;2023-12-14T02:06:58;30;28;
47741;PMS5003;33504;52.066;6.096;2023-12-14T02:09:25;22;22;
47741;PMS5003;33504;52.066;6.096;2023-12-14T02:11:52;31;30;
47741;PMS5003;33504;52.066;6.096;2023-12-14T02:14:21;24;22;
47741;PMS5003;33504;52.066;6.096;2023-12-14T02:16:48;31;29;
47741;PMS5003;33504;52.066;6.096;2023-12-14T02:19:16;26;25;
47741;PMS5003;33504;52.066;6.096;2023-12-14T02:21:43;27;27;
47741;PMS5003;33504;52.066;6.096;2023-12-14T02:24:10;29;28;
47741;PMS5003;33504;52.066;6.096;2023-12-14T02:26:36;23;23;
47741;PMS5003;33504;52.066;6.096;2023-12-14T02:29:03;28;28;
47741;PMS5003;33504;52.066;6.096;2023-12-14T02:31:30;30;24;
47741;PMS5003;33504;52.066;6.096;2023-12-14T02:33:58;23;23;
47741;PMS5003;33504;52.066;6.096;2023-12-14T02:36:25;28;24;
47741;PMS5003;33504;52.066;6.096;2023-12-14T02:38:52;28;25;
47741;PMS5003;33504;52.066;6.096;2023-12-14T02:41:19;28;28;
47741;PMS5003;33504;52.066;6.096;2023-12-14T02:43:46;23;21;
47741;PMS5003;33504;52.066;6.096;2023-12-14T02:46:13;24;22;
47741;PMS5003;33504;52.066;6.096;2023-12-14T02:48:41;30;28;
47741;PMS5003;33504;52.066;6.096;2023-12-14T02:51:12;22;20;
47741;PMS5003;33504;52.066;6.096;2023-12-14T02:53:41;31;30;
47741;PMS5003;33504;52.066;6.096;2023-12-14T02:56:09;25;20;
47741;PMS5003;33504;52.066;6.096;2023-12-14T02:58:37;22;20;
47741;PMS5003;33504;52.066;6.096;2023-12-14T03:01:04;22;20;
47741;PMS5003;33504;52.066;6.096;2023-12-14T03:03:31;21;20;
47741;PMS5003;33504;52.066;6.096;2023-12-14T03:05:59;23;22;
47741;PMS5003;33504;52.066;6.096;2023-12-14T03:08:26;25;23;
47741;PMS5003;33504;52.066;6.096;2023-12-14T03:10:53;22;21;
47741;PMS5003;33504;52.066;6.096;2023-12-14T03:13:20;20;20;
47741;PMS5003;33504;52.066;6.096;2023-12-14T03:15:48;26;25;
47741;PMS5003;33504;52.066;6.096;2023-12-14T03:18:15;25;24;
47741;PMS5003;33504;52.066;6.096;2023-12-14T03:20:42;25;25;
47741;PMS5003;33504;52.066;6.096;2023-12-14T03:23:09;28;27;
47741;PMS5003;33504;52.066;6.096;2023-12-14T03:25:37;23;22;
47741;PMS5003;33504;52.066;6.096;2023-12-14T03:28:04;26;26;
47741;PMS5003;33504;52.066;6.096;2023-12-14T03:30:31;27;24;
47741;PMS5003;33504;52.066;6.096;2023-12-14T03:32:58;26;25;
47741;PMS5003;33504;52.066;6.096;2023-12-14T03:35:25;26;25;
47741;PMS5003;33504;52.066;6.096;2023-12-14T03:37:52;22;20;
47741;PMS5003;33504;52.066;6.096;2023-12-14T03:40:19;24;24;
47741;PMS5003;33504;52.066;6.096;2023-12-14T03:42:47;19;19;
47741;PMS5003;33504;52.066;6.096;2023-12-14T03:45:13;25;24;
47741;PMS5003;33504;52.066;6.096;2023-12-14T03:47:41;21;21;
47741;PMS5003;33504;52.066;6.096;2023-12-14T03:50:10;25;24;
47741;PMS5003;33504;52.066;6.096;2023-12-14T03:52:37;26;25;
47741;PMS5003;33504;52.066;6.096;2023-12-14T03:55:05;25;22;
47741;PMS5003;33504;52.066;6.096;2023-12-14T03:57:33;24;22;
47741;PMS5003;33504;52.066;6.096;2023-12-14T04:00:00;37;34;
47741;PMS5003;33504;52.066;6.096;2023-12-14T04:02:27;25;25;
47741;PMS5003;33504;52.066;6.096;2023-12-14T04:04:54;22;21;
47741;PMS5003;33504;52.066;6.096;2023-12-14T04:07:21;28;26;
47741;PMS5003;33504;52.066;6.096;2023-12-14T04:09:48;24;22;
47741;PMS5003;33504;52.066;6.096;2023-12-14T04:12:15;30;29;
47741;PMS5003;33504;52.066;6.096;2023-12-14T04:14:42;25;25;
47741;PMS5003;33504;52.066;6.096;2023-12-14T04:17:09;22;20;
47741;PMS5003;33504;52.066;6.096;2023-12-14T04:19:37;24;22;
47741;PMS5003;33504;52.066;6.096;2023-12-14T04:22:04;22;21;
47741;PMS5003;33504;52.066;6.096;2023-12-14T04:24:31;23;22;
47741;PMS5003;33504;52.066;6.096;2023-12-14T04:26:58;28;27;
47741;PMS5003;33504;52.066;6.096;2023-12-14T04:29:25;27;25;
47741;PMS5003;33504;52.066;6.096;2023-12-14T04:31:52;23;22;
47741;PMS5003;33504;52.066;6.096;2023-12-14T04:34:19;26;24;
47741;PMS5003;33504;52.066;6.096;2023-12-14T04:36:47;24;22;
47741;PMS5003;33504;52.066;6.096;2023-12-14T04:39:15;26;25;
47741;PMS5003;33504;52.066;6.096;2023-12-14T04:41:42;25;25;
47741;PMS5003;33504;52.066;6.096;2023-12-14T04:44:10;31;30;
47741;PMS5003;33504;52.066;6.096;2023-12-14T04:46:36;29;26;
47741;PMS5003;33504;52.066;6.096;2023-12-14T04:49:04;27;26;
47741;PMS5003;33504;52.066;6.096;2023-12-14T04:51:31;25;25;
47741;PMS5003;33504;52.066;6.096;2023-12-14T04:53:58;26;26;
47741;PMS5003;33504;52.066;6.096;2023-12-14T04:56:25;31;29;
47741;PMS5003;33504;52.066;6.096;2023-12-14T04:58:52;40;37;
47741;PMS5003;33504;52.066;6.096;2023-12-14T05:01:19;25;24;
47741;PMS5003;33504;52.066;6.096;2023-12-14T05:03:47;27;25;
47741;PMS5003;33504;52.066;6.096;2023-12-14T05:06:14;25;23;
47741;PMS5003;33504;52.066;6.096;2023-12-14T05:08:41;25;23;
47741;PMS5003;33504;52.066;6.096;2023-12-14T05:11:08;22;21;
47741;PMS5003;33504;52.066;6.096;2023-12-14T05:13:36;22;22;
47741;PMS5003;33504;52.066;6.096;2023-12-14T05:16:03;21;20;
47741;PMS5003;33504;52.066;6.096;2023-12-14T05:18:30;26;24;
47741;PMS5003;33504;52.066;6.096;2023-12-14T05:20:57;29;27;
47741;PMS5003;33504;52.066;6.096;2023-12-14T05:23:25;39;36;
47741;PMS5003;33504;52.066;6.096;2023-12-14T05:25:52;38;37;
47741;PMS5003;33504;52.066;6.096;2023-12-14T05:28:19;40;39;
47741;PMS5003;33504;52.066;6.096;2023-12-14T05:30:46;25;25;
47741;PMS5003;33504;52.066;6.096;2023-12-14T05:33:13;29;26;
47741;PMS5003;33504;52.066;6.096;2023-12-14T05:35:40;23;21;
47741;PMS5003;33504;52.066;6.096;2023-12-14T05:38:07;19;17;
47741;PMS5003;33504;52.066;6.096;2023-12-14T05:40:34;25;25;
47741;PMS5003;33504;52.066;6.096;2023-12-14T05:43:01;29;28;
47741;PMS5003;33504;52.066;6.096;2023-12-14T05:45:28;48;47;
47741;PMS5003;33504;52.066;6.096;2023-12-14T05:47:55;22;20;
47741;PMS5003;33504;52.066;6.096;2023-12-14T05:50:22;27;27;
47741;PMS5003;33504;52.066;6.096;2023-12-14T05:52:49;30;28;
47741;PMS5003;33504;52.066;6.096;2023-12-14T05:55:16;24;22;
47741;PMS5003;33504;52.066;6.096;2023-12-14T05:57:43;28;27;
47741;PMS5003;33504;52.066;6.096;2023-12-14T06:00:10;26;24;
47741;PMS5003;33504;52.066;6.096;2023-12-14T06:02:38;24;22;
47741;PMS5003;33504;52.066;6.096;2023-12-14T06:05:06;36;34;
47741;PMS5003;33504;52.066;6.096;2023-12-14T06:07:34;29;29;
47741;PMS5003;33504;52.066;6.096;2023-12-14T06:10:01;24;23;
47741;PMS5003;33504;52.066;6.096;2023-12-14T06:12:29;20;19;
47741;PMS5003;33504;52.066;6.096;2023-12-14T06:14:56;18;15;
47741;PMS5003;33504;52.066;6.096;2023-12-14T06:17:23;26;26;
47741;PMS5003;33504;52.066;6.096;2023-12-14T06:19:50;26;25;
47741;PMS5003;33504;52.066;6.096;2023-12-14T06:22:17;19;17;
47741;PMS5003;33504;52.066;6.096;2023-12-14T06:24:44;30;29;
47741;PMS5003;33504;52.066;6.096;2023-12-14T06:27:12;23;21;
47741;PMS5003;33504;52.066;6.096;2023-12-14T06:29:44;19;19;
47741;PMS5003;33504;52.066;6.096;2023-12-14T06:32:11;20;20;
47741;PMS5003;33504;52.066;6.096;2023-12-14T06:34:39;20;19;
47741;PMS5003;33504;52.066;6.096;2023-12-14T06:37:06;19;18;
47741;PMS5003;33504;52.066;6.096;2023-12-14T06:39:33;20;20;
47741;PMS5003;33504;52.066;6.096;2023-12-14T06:42:01;20;18;
47741;PMS5003;33504;52.066;6.096;2023-12-14T06:44:30;30;27;
47741;PMS5003;33504;52.066;6.096;2023-12-14T06:46:57;21;20;
47741;PMS5003;33504;52.066;6.096;2023-12-14T06:49:24;18;18;
47741;PMS5003;33504;52.066;6.096;2023-12-14T06:51:52;22;22;
47741;PMS5003;33504;52.066;6.096;2023-12-14T06:54:19;21;21;
47741;PMS5003;33504;52.066;6.096;2023-12-14T06:56:46;21;19;
47741;PMS5003;33504;52.066;6.096;2023-12-14T06:59:14;23;22;
47741;PMS5003;33504;52.066;6.096;2023-12-14T07:01:41;20;20;
47741;PMS5003;33504;52.066;6.096;2023-12-14T07:04:08;17;17;
47741;PMS5003;33504;52.066;6.096;2023-12-14T07:06:36;20;19;
47741;PMS5003;33504;52.066;6.096;2023-12-14T07:09:02;27;25;
47741;PMS5003;33504;52.066;6.096;2023-12-14T07:11:29;24;22;
47741;PMS5003;33504;52.066;6.096;2023-12-14T07:13:56;26;22;
47741;PMS5003;33504;52.066;6.096;2023-12-14T07:16:23;30;29;
47741;PMS5003;33504;52.066;6.096;2023-12-14T07:18:50;19;18;
47741;PMS5003;33504;52.066;6.096;2023-12-14T07:21:18;34;34;
47741;PMS5003;33504;52.066;6.096;2023-12-14T07:23:45;21;21;
47741;PMS5003;33504;52.066;6.096;2023-12-14T07:26:12;15;14;
47741;PMS5003;33504;52.066;6.096;2023-12-14T07:28:39;18;16;
47741;PMS5003;33504;52.066;6.096;2023-12-14T07:31:07;23;20;
47741;PMS5003;33504;52.066;6.096;2023-12-14T07:33:34;16;15;
47741;PMS5003;33504;52.066;6.096;2023-12-14T07:36:01;19;18;
47741;PMS5003;33504;52.066;6.096;2023-12-14T07:38:28;19;18;
47741;PMS5003;33504;52.066;6.096;2023-12-14T07:40:56;16;15;
47741;PMS5003;33504;52.066;6.096;2023-12-14T07:43:24;18;18;
47741;PMS5003;33504;52.066;6.096;2023-12-14T07:45:51;13;12;
47741;PMS5003;33504;52.066;6.096;2023-12-14T07:48:18;19;17;
47741;PMS5003;33504;52.066;6.096;2023-12-14T07:50:46;20;18;
47741;PMS5003;33504;52.066;6.096;2023-12-14T07:53:13;21;20;
47741;PMS5003;33504;52.066;6.096;2023-12-14T07:55:39;18;16;
47741;PMS5003;33504;52.066;6.096;2023-12-14T07:58:07;21;18;
47741;PMS5003;33504;52.066;6.096;2023-12-14T08:00:34;19;19;
47741;PMS5003;33504;52.066;6.096;2023-12-14T08:03:01;15;15;
47741;PMS5003;33504;52.066;6.096;2023-12-14T08:05:28;19;15;
47741;PMS5003;33504;52.066;6.096;2023-12-14T08:07:55;15;15;
47741;PMS5003;33504;52.066;6.096;2023-12-14T08:10:22;19;19;
47741;PMS5003;33504;52.066;6.096;2023-12-14T08:12:49;19;18;
47741;PMS5003;33504;52.066;6.096;2023-12-14T08:15:16;14;12;
47741;PMS5003;33504;52.066;6.096;2023-12-14T08:17:44;14;14;
47741;PMS5003;33504;52.066;6.096;2023-12-14T08:20:11;12;12;
47741;PMS5003;33504;52.066;6.096;2023-12-14T08:22:38;17;16;
47741;PMS5003;33504;52.066;6.096;2023-12-14T08:25:06;18;15;
47741;PMS5003;33504;52.066;6.096;2023-12-14T08:27:34;16;15;
47741;PMS5003;33504;52.066;6.096;2023-12-14T08:30:01;17;15;
47741;PMS5003;33504;52.066;6.096;2023-12-14T08:32:28;14;14;
47741;PMS5003;33504;52.066;6.096;2023-12-14T08:34:55;16;15;
47741;PMS5003;33504;52.066;6.096;2023-12-14T08:37:22;17;17;
47741;PMS5003;33504;52.066;6.096;2023-12-14T08:39:50;15;14;
47741;PMS5003;33504;52.066;6.096;2023-12-14T08:42:17;16;16;
47741;PMS5003;33504;52.066;6.096;2023-12-14T08:44:43;14;14;
47741;PMS5003;33504;52.066;6.096;2023-12-14T08:47:10;16;14;
47741;PMS5003;33504;52.066;6.096;2023-12-14T08:49:38;17;17;
47741;PMS5003;33504;52.066;6.096;2023-12-14T08:52:05;19;17;
47741;PMS5003;33504;52.066;6.096;2023-12-14T08:54:32;17;16;
47741;PMS5003;33504;52.066;6.096;2023-12-14T08:57:00;15;15;
47741;PMS5003;33504;52.066;6.096;2023-12-14T08:59:27;19;18;
47741;PMS5003;33504;52.066;6.096;2023-12-14T09:01:54;21;20;
47741;PMS5003;33504;52.066;6.096;2023-12-14T09:04:21;18;17;
47741;PMS5003;33504;52.066;6.096;2023-12-14T09:06:48;15;15;
47741;PMS5003;33504;52.066;6.096;2023-12-14T09:09:15;24;23;
47741;PMS5003;33504;52.066;6.096;2023-12-14T09:11:43;33;33;
47741;PMS5003;33504;52.066;6.096;2023-12-14T09:14:10;23;21;
47741;PMS5003;33504;52.066;6.096;2023-12-14T09:16:37;19;18;
47741;PMS5003;33504;52.066;6.096;2023-12-14T09:19:05;16;16;
47741;PMS5003;33504;52.066;6.096;2023-12-14T09:21:32;24;22;
47741;PMS5003;33504;52.066;6.096;2023-12-14T09:24:00;15;14;
47741;PMS5003;33504;52.066;6.096;2023-12-14T09:26:27;20;19;
47741;PMS5003;33504;52.066;6.096;2023-12-14T09:28:54;22;22;
47741;PMS5003;33504;52.066;6.096;2023-12-14T09:31:22;17;16;
47741;PMS5003;33504;52.066;6.096;2023-12-14T09:33:49;22;19;
47741;PMS5003;33504;52.066;6.096;2023-12-14T09:36:16;18;17;
47741;PMS5003;33504;52.066;6.096;2023-12-14T09:38:43;19;18;
47741;PMS5003;33504;52.066;6.096;2023-12-14T09:41:10;14;14;
47741;PMS5003;33504;52.066;6.096;2023-12-14T09:43:38;19;17;
47741;PMS5003;33504;52.066;6.096;2023-12-14T09:46:05;22;20;
47741;PMS5003;33504;52.066;6.096;2023-12-14T09:48:34;25;22;
47741;PMS5003;33504;52.066;6.096;2023-12-14T09:51:01;18;17;
47741;PMS5003;33504;52.066;6.096;2023-12-14T09:53:29;18;17;
47741;PMS5003;33504;52.066;6.096;2023-12-14T09:55:56;21;19;
47741;PMS5003;33504;52.066;6.096;2023-12-14T09:58:23;31;28;
47741;PMS5003;33504;52.066;6.096;2023-12-14T10:00:50;16;15;
47741;PMS5003;33504;52.066;6.096;2023-12-14T10:03:19;23;21;
47741;PMS5003;33504;52.066;6.096;2023-12-14T10:05:48;26;25;
47741;PMS5003;33504;52.066;6.096;2023-12-14T10:08:15;19;19;
47741;PMS5003;33504;52.066;6.096;2023-12-14T10:10:43;23;22;
47741;PMS5003;33504;52.066;6.096;2023-12-14T10:13:11;19;18;
47741;PMS5003;33504;52.066;6.096;2023-12-14T10:15:41;20;18;
47741;PMS5003;33504;52.066;6.096;2023-12-14T10:18:09;25;24;
47741;PMS5003;33504;52.066;6.096;2023-12-14T10:20:37;19;18;
47741;PMS5003;33504;52.066;6.096;2023-12-14T10:23:04;19;17;
47741;PMS5003;33504;52.066;6.096;2023-12-14T10:25:32;20;20;
47741;PMS5003;33504;52.066;6.096;2023-12-14T10:27:59;24;23;
47741;PMS5003;33504;52.066;6.096;2023-12-14T10:30:27;23;21;
47741;PMS5003;33504;52.066;6.096;2023-12-14T10:32:54;24;24;
47741;PMS5003;33504;52.066;6.096;2023-12-14T10:35:21;21;20;
47741;PMS5003;33504;52.066;6.096;2023-12-14T10:37:50;17;16;
47741;PMS5003;33504;52.066;6.096;2023-12-14T10:40:22;23;21;
47741;PMS5003;33504;52.066;6.096;2023-12-14T10:42:51;19;18;
47741;PMS5003;33504;52.066;6.096;2023-12-14T10:45:25;20;18;
47741;PMS5003;33504;52.066;6.096;2023-12-14T10:47:56;20;20;
47741;PMS5003;33504;52.066;6.096;2023-12-14T10:50:26;22;21;
47741;PMS5003;33504;52.066;6.096;2023-12-14T10:52:56;19;17;
47741;PMS5003;33504;52.066;6.096;2023-12-14T10:55:26;30;28;
47741;PMS5003;33504;52.066;6.096;2023-12-14T10:57:58;18;17;
47741;PMS5003;33504;52.066;6.096;2023-12-14T11:00:25;15;14;
47741;PMS5003;33504;52.066;6.096;2023-12-14T11:02:52;18;16;
47741;PMS5003;33504;52.066;6.096;2023-12-14T11:05:21;19;19;
47741;PMS5003;33504;52.066;6.096;2023-12-14T11:07:50;25;24;
47741;PMS5003;33504;52.066;6.096;2023-12-14T11:10:20;31;30;
47741;PMS5003;33504;52.066;6.096;2023-12-14T11:12:54;28;26;
47741;PMS5003;33504;52.066;6.096;2023-12-14T11:15:23;23;23;
47741;PMS5003;33504;52.066;6.096;2023-12-14T11:18:19;19;19;
47741;PMS5003;33504;52.066;6.096;2023-12-14T11:20:48;23;22;
47741;PMS5003;33504;52.066;6.096;2023-12-14T11:23:16;27;26;
47741;PMS5003;33504;52.066;6.096;2023-12-14T11:25:53;19;18;
47741;PMS5003;33504;52.066;6.096;2023-12-14T11:28:21;21;20;
47741;PMS5003;33504;52.066;6.096;2023-12-14T11:30:48;18;17;
47741;PMS5003;33504;52.066;6.096;2023-12-14T11:33:16;25;23;
47741;PMS5003;33504;52.066;6.096;2023-12-14T11:35:43;20;19;
47741;PMS5003;33504;52.066;6.096;2023-12-14T11:38:10;18;18;
47741;PMS5003;33504;52.066;6.096;2023-12-14T11:40:37;23;22;
47741;PMS5003;33504;52.066;6.096;2023-12-14T11:43:04;30;27;
47741;PMS5003;33504;52.066;6.096;2023-12-14T11:45:32;23;22;
47741;PMS5003;33504;52.066;6.096;2023-12-14T11:47:59;17;15;
47741;PMS5003;33504;52.066;6.096;2023-12-14T11:50:26;21;19;
47741;PMS5003;33504;52.066;6.096;2023-12-14T11:52:53;16;16;
47741;PMS5003;33504;52.066;6.096;2023-12-14T11:55:22;18;17;
47741;PMS5003;33504;52.066;6.096;2023-12-14T11:57:49;18;17;
47741;PMS5003;33504;52.066;6.096;2023-12-14T12:00:17;20;19;
47741;PMS5003;33504;52.066;6.096;2023-12-14T12:02:44;19;18;
47741;PMS5003;33504;52.066;6.096;2023-12-14T12:05:11;21;20;
47741;PMS5003;33504;52.066;6.096;2023-12-14T12:07:38;15;15;
47741;PMS5003;33504;52.066;6.096;2023-12-14T12:10:06;16;15;
47741;PMS5003;33504;52.066;6.096;2023-12-14T12:12:33;15;15;
47741;PMS5003;33504;52.066;6.096;2023-12-14T12:15:00;21;19;
47741;PMS5003;33504;52.066;6.096;2023-12-14T12:17:28;14;13;
47741;PMS5003;33504;52.066;6.096;2023-12-14T12:19:55;15;15;
47741;PMS5003;33504;52.066;6.096;2023-12-14T12:22:22;19;19;
47741;PMS5003;33504;52.066;6.096;2023-12-14T12:24:49;17;16;
47741;PMS5003;33504;52.066;6.096;2023-12-14T12:27:16;17;16;
47741;PMS5003;33504;52.066;6.096;2023-12-14T12:29:43;19;17;
47741;PMS5003;33504;52.066;6.096;2023-12-14T12:32:10;17;16;
47741;PMS5003;33504;52.066;6.096;2023-12-14T12:34:37;14;14;
47741;PMS5003;33504;52.066;6.096;2023-12-14T12:37:05;15;14;
47741;PMS5003;33504;52.066;6.096;2023-12-14T12:39:32;18;16;
47741;PMS5003;33504;52.066;6.096;2023-12-14T12:41:59;16;15;
47741;PMS5003;33504;52.066;6.096;2023-12-14T12:44:26;14;14;
47741;PMS5003;33504;52.066;6.096;2023-12-14T12:46:54;25;22;
47741;PMS5003;33504;52.066;6.096;2023-12-14T12:49:23;14;13;
47741;PMS5003;33504;52.066;6.096;2023-12-14T12:51:51;15;15;
47741;PMS5003;33504;52.066;6.096;2023-12-14T12:54:22;16;14;
47741;PMS5003;33504;52.066;6.096;2023-12-14T12:56:52;19;19;
47741;PMS5003;33504;52.066;6.096;2023-12-14T12:59:21;12;11;
47741;PMS5003;33504;52.066;6.096;2023-12-14T13:01:48;20;19;
47741;PMS5003;33504;52.066;6.096;2023-12-14T13:04:17;16;15;
47741;PMS5003;33504;52.066;6.096;2023-12-14T13:06:45;15;14;
47741;PMS5003;33504;52.066;6.096;2023-12-14T13:09:13;17;15;
47741;PMS5003;33504;52.066;6.096;2023-12-14T13:11:39;14;13;
47741;PMS5003;33504;52.066;6.096;2023-12-14T13:14:06;13;13;
47741;PMS5003;33504;52.066;6.096;2023-12-14T13:16:34;16;15;
47741;PMS5003;33504;52.066;6.096;2023-12-14T13:19:01;15;14;
47741;PMS5003;33504;52.066;6.096;2023-12-14T13:21:28;13;13;
47741;PMS5003;33504;52.066;6.096;2023-12-14T13:23:55;23;22;
47741;PMS5003;33504;52.066;6.096;2023-12-14T13:26:22;15;15;
47741;PMS5003;33504;52.066;6.096;2023-12-14T13:28:50;21;20;
47741;PMS5003;33504;52.066;6.096;2023-12-14T13:31:18;20;19;
47741;PMS5003;33504;52.066;6.096;2023-12-14T13:33:46;17;15;
47741;PMS5003;33504;52.066;6.096;2023-12-14T13:36:13;20;20;
47741;PMS5003;33504;52.066;6.096;2023-12-14T13:38:41;14;14;
47741;PMS5003;33504;52.066;6.096;2023-12-14T13:41:09;18;16;
47741;PMS5003;33504;52.066;6.096;2023-12-14T13:43:36;13;13;
47741;PMS5003;33504;52.066;6.096;2023-12-14T13:46:03;15;14;
47741;PMS5003;33504;52.066;6.096;2023-12-14T13:48:30;14;14;
47741;PMS5003;33504;52.066;6.096;2023-12-14T13:50:57;15;14;
47741;PMS5003;33504;52.066;6.096;2023-12-14T13:53:24;16;16;
47741;PMS5003;33504;52.066;6.096;2023-12-14T13:55:52;15;14;
47741;PMS5003;33504;52.066;6.096;2023-12-14T13:58:19;14;13;
47741;PMS5003;33504;52.066;6.096;2023-12-14T14:00:47;16;14;
47741;PMS5003;33504;52.066;6.096;2023-12-14T14:03:14;15;14;
47741;PMS5003;33504;52.066;6.096;2023-12-14T14:05:41;15;14;
47741;PMS5003;33504;52.066;6.096;2023-12-14T14:08:08;15;12;
47741;PMS5003;33504;52.066;6.096;2023-12-14T14:10:35;14;12;
47741;PMS5003;33504;52.066;6.096;2023-12-14T14:13:02;12;11;
47741;PMS5003;33504;52.066;6.096;2023-12-14T14:15:29;17;17;
47741;PMS5003;33504;52.066;6.096;2023-12-14T14:17:57;13;12;
47741;PMS5003;33504;52.066;6.096;2023-12-14T14:20:24;21;19;
47741;PMS5003;33504;52.066;6.096;2023-12-14T14:22:52;17;14;
47741;PMS5003;33504;52.066;6.096;2023-12-14T14:25:18;14;14;
47741;PMS5003;33504;52.066;6.096;2023-12-14T14:27:45;14;14;
47741;PMS5003;33504;52.066;6.096;2023-12-14T14:30:12;13;12;
47741;PMS5003;33504;52.066;6.096;2023-12-14T14:32:40;18;17;
47741;PMS5003;33504;52.066;6.096;2023-12-14T14:35:07;15;15;
47741;PMS5003;33504;52.066;6.096;2023-12-14T14:37:34;13;13;
47741;PMS5003;33504;52.066;6.096;2023-12-14T14:40:02;17;15;
47741;PMS5003;33504;52.066;6.096;2023-12-14T14:42:30;13;13;
47741;PMS5003;33504;52.066;6.096;2023-12-14T14:44:57;17;16;
47741;PMS5003;33504;52.066;6.096;2023-12-14T14:47:24;16;15;
47741;PMS5003;33504;52.066;6.096;2023-12-14T14:49:51;17;15;
47741;PMS5003;33504;52.066;6.096;2023-12-14T14:52:18;14;14;
47741;PMS5003;33504;52.066;6.096;2023-12-14T14:54:45;13;12;
47741;PMS5003;33504;52.066;6.096;2023-12-14T14:57:12;15;15;
47741;PMS5003;33504;52.066;6.096;2023-12-14T14:59:39;15;14;
47741;PMS5003;33504;52.066;6.096;2023-12-14T15:02:06;18;17;
47741;PMS5003;33504;52.066;6.096;2023-12-14T15:04:34;19;18;
47741;PMS5003;33504;52.066;6.096;2023-12-14T15:07:01;15;15;
47741;PMS5003;33504;52.066;6.096;2023-12-14T15:09:28;19;19;
47741;PMS5003;33504;52.066;6.096;2023-12-14T15:11:55;28;27;
47741;PMS5003;33504;52.066;6.096;2023-12-14T15:14:22;24;23;
47741;PMS5003;33504;52.066;6.096;2023-12-14T15:16:49;24;23;
47741;PMS5003;33504;52.066;6.096;2023-12-14T15:19:17;23;22;
47741;PMS5003;33504;52.066;6.096;2023-12-14T15:21:44;21;20;
47741;PMS5003;33504;52.066;6.096;2023-12-14T15:24:12;16;16;
47741;PMS5003;33504;52.066;6.096;2023-12-14T15:26:40;17;16;
47741;PMS5003;33504;52.066;6.096;2023-12-14T15:29:07;18;17;
47741;PMS5003;33504;52.066;6.096;2023-12-14T15:31:35;16;16;
47741;PMS5003;33504;52.066;6.096;2023-12-14T15:34:02;19;17;
47741;PMS5003;33504;52.066;6.096;2023-12-14T15:36:29;17;15;
47741;PMS5003;33504;52.066;6.096;2023-12-14T15:38:56;15;14;
47741;PMS5003;33504;52.066;6.096;2023-12-14T15:41:23;17;17;
47741;PMS5003;33504;52.066;6.096;2023-12-14T15:43:51;13;13;
47741;PMS5003;33504;52.066;6.096;2023-12-14T15:46:18;18;16;
47741;PMS5003;33504;52.066;6.096;2023-12-14T15:48:45;17;16;
47741;PMS5003;33504;52.066;6.096;2023-12-14T15:51:13;21;17;
47741;PMS5003;33504;52.066;6.096;2023-12-14T15:53:41;16;15;
47741;PMS5003;33504;52.066;6.096;2023-12-14T15:56:08;19;18;
47741;PMS5003;33504;52.066;6.096;2023-12-14T15:58:35;28;27;
47741;PMS5003;33504;52.066;6.096;2023-12-14T16:01:03;23;22;
47741;PMS5003;33504;52.066;6.096;2023-12-14T16:03:30;27;26;
47741;PMS5003;33504;52.066;6.096;2023-12-14T16:05:57;25;24;
47741;PMS5003;33504;52.066;6.096;2023-12-14T16:08:24;18;18;
47741;PMS5003;33504;52.066;6.096;2023-12-14T16:10:51;24;22;
47741;PMS5003;33504;52.066;6.096;2023-12-14T16:13:18;18;17;
47741;PMS5003;33504;52.066;6.096;2023-12-14T16:15:45;23;21;
47741;PMS5003;33504;52.066;6.096;2023-12-14T16:18:13;18;18;
47741;PMS5003;33504;52.066;6.096;2023-12-14T16:20:40;18;17;